Flight Track Log - Related Links

Times and Time Zones

All times are in EDT time to prevent confusion due to time zone crossing. See the LIA565 flight status page for this flight to view local times or setup timezone preferences in your user account.

Time Position Orientation Groundspeed Altitude Reporting Facility
EDT Latitude Longitude Course Direction KTS MPH feet Rate Location/Type
Sun 05:07:00 PM 15.5129 -61.2747 144° Southeast  Level Estimated
Sun 05:08:00 PM 15.4852 -61.2542 144° Southeast  Level Estimated
Sun 05:09:00 PM 15.4575 -61.2337 144° Southeast  Level Estimated
Sun 05:10:00 PM 15.4298 -61.2131 144° Southeast  Level Estimated
Sun 05:11:00 PM 15.4021 -61.1926 144° Southeast  Level Estimated
Sun 05:12:00 PM 15.3744 -61.1721 144° Southeast  Level Estimated
Sun 05:13:00 PM 15.3467 -61.1516 144° Southeast  Level Estimated
Sun 05:14:00 PM 15.3190 -61.1312 144° Southeast  Level Estimated
Sun 05:15:00 PM 15.2913 -61.1107 145° Southeast  Level Estimated
Sun 05:16:00 PM 15.2636 -61.0902 145° Southeast  Level Estimated
Sun 05:17:00 PM 15.2359 -61.0697 145° Southeast  Level Estimated
Sun 05:18:00 PM 15.2082 -61.0493 145° Southeast  Level Estimated
Sun 05:19:00 PM 15.1805 -61.0288 145° Southeast  Level Estimated
Sun 05:20:00 PM 15.1528 -61.0084 145° Southeast  Level Estimated
Sun 05:21:00 PM 15.1251 -60.9879 145° Southeast  Level Estimated
Sun 05:22:00 PM 15.0974 -60.9675 145° Southeast  Level Estimated
Sun 05:23:00 PM 15.0696 -60.9470 145° Southeast  Level Estimated
Sun 05:24:00 PM 15.0419 -60.9266 145° Southeast  Level Estimated
Sun 05:25:00 PM 15.0142 -60.9062 145° Southeast  Level Estimated
Sun 05:26:00 PM 14.9865 -60.8857 145° Southeast  Level Estimated
Sun 05:27:00 PM 14.9588 -60.8653 145° Southeast  Level Estimated
Sun 05:28:00 PM 14.9310 -60.8449 145° Southeast  Level Estimated
Sun 05:29:00 PM 14.9033 -60.8245 145° Southeast  Level Estimated
Sun 05:30:00 PM 14.8756 -60.8041 145° Southeast  Level Estimated
Sun 05:31:00 PM 14.8478 -60.7837 145° Southeast  Level Estimated
Sun 05:32:00 PM 14.8201 -60.7633 145° Southeast  Level Estimated
Sun 05:33:00 PM 14.7924 -60.7429 145° Southeast  Level Estimated
Sun 05:34:00 PM 14.7646 -60.7225 145° Southeast  Level Estimated
Sun 05:35:00 PM 14.7369 -60.7022 145° Southeast  Level Estimated
Sun 05:36:00 PM 14.7092 -60.6818 145° Southeast  Level Estimated
Sun 05:37:00 PM 14.6814 -60.6614 145° Southeast  Level Estimated
Sun 05:38:00 PM 14.6537 -60.6411 145° Southeast  Level Estimated
Sun 05:39:00 PM 14.6259 -60.6207 145° Southeast  Level Estimated
Sun 05:40:00 PM 14.5982 -60.6004 145° Southeast  Level Estimated
Sun 05:41:00 PM 14.5704 -60.5800 145° Southeast  Level Estimated
Sun 05:42:00 PM 14.5427 -60.5597 145° Southeast  Level Estimated
Sun 05:43:00 PM 14.5149 -60.5394 145° Southeast  Level Estimated
Sun 05:44:00 PM 14.4872 -60.5190 145° Southeast  Level Estimated
Sun 05:45:00 PM 14.4594 -60.4987 145° Southeast  Level Estimated
Sun 05:46:00 PM 14.4317 -60.4784 145° Southeast  Level Estimated
Sun 05:47:00 PM 14.4039 -60.4581 145° Southeast  Level Estimated
Sun 05:48:00 PM 14.3761 -60.4378 145° Southeast  Level Estimated
Sun 05:49:00 PM 14.3484 -60.4175 145° Southeast  Level Estimated
Sun 05:50:00 PM 14.3206 -60.3972 145° Southeast  Level Estimated
Sun 05:51:00 PM 14.2928 -60.3769 145° Southeast  Level Estimated
Sun 05:52:00 PM 14.2651 -60.3566 145° Southeast  Level Estimated
Sun 05:53:00 PM 14.2373 -60.3363 145° Southeast  Level Estimated
Sun 05:54:00 PM 14.2095 -60.3160 145° Southeast  Level Estimated
Sun 05:55:00 PM 14.1818 -60.2958 145° Southeast  Level Estimated
Sun 05:56:00 PM 14.1540 -60.2755 145° Southeast  Level Estimated
Sun 05:57:00 PM 14.1262 -60.2552 145° Southeast  Level Estimated
Sun 05:58:00 PM 14.0984 -60.2350 145° Southeast  Level Estimated
Sun 05:59:00 PM 14.0707 -60.2147 145° Southeast  Level Estimated
Sun 06:00:00 PM 14.0429 -60.1945 145° Southeast  Level Estimated
Sun 06:01:00 PM 14.0151 -60.1742 145° Southeast  Level Estimated
Sun 06:02:00 PM 13.9873 -60.1540 145° Southeast  Level Estimated
Sun 06:03:00 PM 13.9595 -60.1338 145° Southeast  Level Estimated
Sun 06:04:00 PM 13.9317 -60.1135 145° Southeast  Level Estimated
Sun 06:05:00 PM 13.9039 -60.0933 145° Southeast  Level Estimated
Sun 06:06:00 PM 13.8762 -60.0731 145° Southeast  Level Estimated
Sun 06:07:00 PM 13.8484 -60.0529 145° Southeast  Level Estimated
Sun 06:08:00 PM 13.8206 -60.0327 145° Southeast  Level Estimated
Sun 06:09:00 PM 13.7928 -60.0125 145° Southeast  Level Estimated
Sun 06:10:00 PM 13.7650 -59.9922 145° Southeast  Level Estimated
Sun 06:11:00 PM 13.7372 -59.9720 145° Southeast  Level Estimated
Sun 06:12:00 PM 13.7094 -59.9519 145° Southeast  Level Estimated
Sun 06:13:00 PM 13.6816 -59.9317 145° Southeast  Level Estimated
Sun 06:14:00 PM 13.6538 -59.9115 145° Southeast  Level Estimated
Sun 06:15:00 PM 13.6259 -59.8913 145° Southeast  Level Estimated
Sun 06:16:00 PM 13.5981 -59.8711 145° Southeast  Level Estimated
Sun 06:17:00 PM 13.5703 -59.8510 145° Southeast  Level Estimated
Sun 06:18:00 PM 13.5425 -59.8308 145° Southeast  Level Estimated
Sun 06:19:00 PM 13.5147 -59.8106 145° Southeast  Level Estimated
Sun 06:20:00 PM 13.4869 -59.7905 145° Southeast  Level Estimated
Sun 06:21:00 PM 13.4591 -59.7704 145° Southeast  Level Estimated
Sun 06:22:00 PM 13.4313 -59.7502 145° Southeast  Level Estimated
Sun 06:23:00 PM 13.4034 -59.7301 145° Southeast  Level Estimated
Sun 06:24:00 PM 13.3756 -59.7099 145° Southeast  Level Estimated
Sun 06:25:00 PM 13.3478 -59.6898 145° Southeast  Level Estimated
Sun 06:26:00 PM 13.3200 -59.6697 145° Southeast  Level Estimated
Sun 06:27:00 PM 13.2921 -59.6496 145° Southeast  Level Estimated
Sun 06:28:00 PM 13.2643 -59.6294 145° Southeast  Level Estimated
Sun 06:29:00 PM 13.2365 -59.6093 145° Southeast  Level Estimated
Sun 06:30:00 PM 13.2087 -59.5892 145° Southeast  Level Estimated
Sun 06:31:00 PM 13.1808 -59.5691 145° Southeast  Level Estimated
Sun 06:32:00 PM 13.1530 -59.5490 145° Southeast  Level Estimated
Sun 06:33:00 PM 13.1252 -59.5289 145° Southeast  Level Estimated
Sun 06:34:00 PM 13.0973 -59.5088 145° Southeast  Level Estimated
Sun 06:35:00 PM 13.0746 -59.4925 145° Southeast  Level Estimated
Sun 06:36:00 PM 13.0746 -59.4925 52° Northeast  Level Estimated
Sun 06:37:00 PM 13.0746 -59.4925 52° Northeast  Level Estimated
Sun 06:38:00 PM 13.0746 -59.4925 52° Northeast  Level Estimated
Sun 06:39:00 PM 13.0746 -59.4925 52° Northeast  Level Estimated
Sun 06:40:00 PM 13.0746 -59.4925 52° Northeast  Level Estimated
Sun 06:41:00 PM 13.0746 -59.4925 52° Northeast  Level Estimated
Sun 06:42:00 PM 13.0746 -59.4925 52° Northeast  Level Estimated
Sun 06:43:00 PM 13.0746 -59.4925 52° Northeast  Level Estimated
Sun 06:44:00 PM 13.0746 -59.4925 52° Northeast  Level Estimated
Sun 06:45:00 PM 13.0746 -59.4925 52° Northeast  Level Estimated
Sun 06:46:00 PM 13.0746 -59.4925 52° Northeast  Level Estimated
Sun 06:47:00 PM 13.0746 -59.4925 52° Northeast  Level Estimated
Sun 06:48:00 PM 13.0746 -59.4925 52° Northeast  Level Estimated
Sun 06:49:00 PM 13.0746 -59.4925 52° Northeast  Level Estimated
Sun 06:50:00 PM 13.0746 -59.4925 52° Northeast  Level Estimated
Sun 06:51:00 PM 13.0746 -59.4925 52° Northeast  Level Estimated

Login

Don't have an account? Register now (free) for customized features, flight alerts, and more!